createdAt,value
2023-02-06T00:00:00.073Z,20.58
2023-02-06T00:05:02.276Z,26.88
2023-02-06T00:10:06.745Z,21.42
2023-02-06T00:15:10.145Z,23.10
2023-02-06T00:20:13.408Z,25.83
2023-02-06T00:25:20.051Z,19.48
2023-02-06T00:30:22.337Z,21.55
2023-02-06T00:35:24.545Z,18.65
2023-02-06T00:40:28.262Z,21.67
2023-02-06T00:45:30.513Z,22.73
2023-02-06T00:50:32.672Z,24.48
2023-02-06T00:55:36.520Z,22.23
2023-02-06T01:00:39.005Z,18.52
2023-02-06T01:05:41.273Z,19.40
2023-02-06T01:10:45.278Z,14.77
2023-02-06T01:15:48.998Z,13.20
2023-02-06T01:20:53.042Z,10.98
2023-02-06T01:25:56.570Z,21.00
2023-02-06T01:30:58.786Z,17.90
2023-02-06T01:36:01.282Z,13.23
2023-02-06T01:41:05.811Z,16.25
2023-02-06T01:46:08.793Z,20.80
2023-02-06T01:51:15.245Z,16.00
2023-02-06T01:56:20.622Z,12.23
2023-02-06T02:01:22.979Z,16.60
2023-02-06T02:06:27.544Z,12.45
2023-02-06T02:11:33.471Z,17.10
2023-02-06T02:16:46.435Z,13.05
2023-02-06T02:22:29.298Z,20.75
2023-02-06T02:27:54.781Z,21.60
2023-02-06T02:33:38.761Z,27.35
2023-02-06T02:38:51.877Z,17.38
2023-02-06T02:44:01.162Z,11.18
2023-02-06T02:49:06.742Z,16.25
2023-02-06T02:54:10.765Z,15.40
2023-02-06T02:59:17.341Z,23.10
2023-02-06T03:04:25.624Z,21.08
2023-02-06T03:09:45.613Z,16.85
2023-02-06T03:14:55.557Z,22.80
2023-02-06T03:20:02.424Z,17.38
2023-02-06T03:25:12.510Z,20.30
2023-02-06T03:30:16.622Z,23.08
2023-02-06T03:35:22.188Z,19.20
2023-02-06T03:40:28.036Z,10.57
2023-02-06T03:45:34.086Z,16.15
2023-02-06T03:50:41.520Z,13.07
2023-02-06T03:55:47.287Z,10.25
2023-02-06T04:00:50.169Z,12.40
2023-02-06T04:05:52.297Z,13.35
2023-02-06T04:10:56.016Z,19.55
2023-02-06T04:15:58.105Z,21.10
2023-02-06T04:21:04.442Z,18.65
2023-02-06T04:26:07.964Z,16.13
2023-02-06T04:31:10.158Z,12.25
2023-02-06T04:36:12.287Z,13.57
2023-02-06T04:41:15.751Z,10.10
2023-02-06T04:46:17.974Z,13.15
2023-02-06T04:51:20.133Z,12.73
2023-02-06T04:56:23.764Z,9.50
2023-02-06T05:01:26.106Z,16.58
2023-02-06T05:06:28.441Z,11.13
2023-02-06T05:11:32.078Z,14.15
2023-02-06T05:16:34.184Z,10.68
2023-02-06T05:21:36.241Z,10.32
2023-02-06T05:26:39.747Z,11.30
2023-02-06T05:31:42.038Z,13.57
2023-02-06T05:36:44.357Z,11.93
2023-02-06T05:41:47.896Z,11.43
2023-02-06T05:46:50.077Z,13.93
2023-02-06T05:51:52.191Z,11.73
2023-02-06T05:56:55.718Z,13.50
2023-02-06T06:01:57.917Z,14.00
2023-02-06T06:07:02.822Z,14.40
2023-02-06T06:12:12.136Z,13.32
2023-02-06T06:17:18.767Z,11.07
2023-02-06T06:22:29.313Z,24.35
2023-02-06T06:27:40.502Z,16.85
2023-02-06T06:32:45.204Z,26.95
2023-02-06T06:37:48.860Z,22.90
2023-02-06T06:42:52.645Z,8.43
2023-02-06T06:47:54.864Z,18.35
2023-02-06T06:52:56.982Z,24.08
2023-02-06T06:58:00.652Z,26.77
2023-02-06T07:03:03.103Z,29.90
2023-02-06T07:08:05.717Z,16.08
2023-02-06T07:13:09.365Z,28.05
2023-02-06T07:18:11.999Z,30.65
2023-02-06T07:23:14.185Z,21.58
2023-02-06T07:28:17.890Z,17.45
2023-02-06T07:33:20.267Z,13.25
2023-02-06T07:38:22.656Z,19.98
2023-02-06T07:43:26.326Z,14.98
2023-02-06T07:48:28.840Z,12.65
2023-02-06T07:53:30.938Z,16.45
2023-02-06T07:58:34.542Z,22.50
2023-02-06T08:03:36.767Z,18.17
2023-02-06T08:08:39.067Z,20.25
2023-02-06T08:13:43.315Z,12.77
2023-02-06T08:18:45.604Z,13.55
2023-02-06T08:23:48.109Z,18.88
2023-02-06T08:28:52.294Z,20.73
2023-02-06T08:34:00.969Z,12.68
2023-02-06T08:39:04.724Z,29.55
2023-02-06T08:44:11.210Z,26.25
2023-02-06T08:49:15.579Z,21.23
2023-02-06T08:54:19.281Z,14.48
2023-02-06T08:59:22.973Z,14.98
2023-02-06T09:04:25.222Z,16.38
2023-02-06T09:09:27.476Z,17.23
2023-02-06T09:14:31.823Z,23.15
2023-02-06T09:19:34.000Z,24.70
2023-02-06T09:24:37.374Z,23.70
2023-02-06T09:29:41.223Z,29.10
2023-02-06T09:34:43.328Z,21.45
2023-02-06T09:39:45.509Z,27.70
2023-02-06T09:44:54.499Z,15.02
2023-02-06T09:50:00.255Z,21.20
2023-02-06T09:55:10.415Z,14.35
2023-02-06T10:00:29.742Z,19.08
2023-02-06T10:05:43.900Z,16.23
2023-02-06T10:10:53.420Z,17.08
2023-02-06T10:16:01.914Z,20.77
2023-02-06T10:21:10.632Z,19.48
2023-02-06T10:26:16.054Z,22.52
2023-02-06T10:31:47.028Z,14.05
2023-02-06T10:37:02.968Z,11.65
2023-02-06T10:42:13.670Z,13.25
2023-02-06T10:47:26.656Z,13.20
2023-02-06T10:52:33.546Z,13.93
2023-02-06T10:57:35.976Z,11.15
2023-02-06T11:02:46.333Z,10.90
2023-02-06T11:07:54.623Z,13.75
2023-02-06T11:13:02.362Z,13.32
2023-02-06T11:18:10.468Z,9.65
2023-02-06T11:23:18.983Z,10.50
2023-02-06T11:28:22.625Z,10.88
2023-02-06T11:33:35.904Z,8.70
2023-02-06T11:38:38.076Z,10.75
2023-02-06T11:43:49.482Z,16.58
2023-02-06T11:49:05.604Z,8.32
2023-02-06T11:54:20.546Z,10.75
2023-02-06T11:59:22.842Z,14.90
2023-02-06T12:04:34.239Z,13.90
2023-02-06T12:09:36.597Z,12.98
2023-02-06T12:14:42.014Z,10.73
2023-02-06T12:19:49.940Z,15.10
2023-02-06T12:24:55.896Z,12.27
2023-02-06T12:30:03.397Z,7.85
2023-02-06T12:35:19.087Z,10.55
2023-02-06T12:40:35.087Z,10.27
2023-02-06T12:45:46.514Z,10.50
2023-02-06T12:51:09.749Z,7.47
2023-02-06T12:56:22.083Z,11.73
2023-02-06T13:01:42.480Z,10.27
2023-02-06T13:06:51.690Z,10.73
2023-02-06T13:11:54.834Z,12.00
2023-02-06T13:17:03.127Z,8.32
2023-02-06T13:22:39.082Z,7.97
2023-02-06T13:27:41.725Z,11.10
2023-02-06T13:32:48.333Z,9.98
2023-02-06T13:38:12.611Z,11.45
2023-02-06T13:43:20.054Z,11.30
2023-02-06T13:48:51.893Z,9.60
2023-02-06T13:54:40.250Z,9.93
2023-02-06T14:04:48.225Z,15.48
2023-02-06T14:10:20.226Z,6.65
2023-02-06T14:15:31.905Z,10.98
2023-02-06T14:20:48.645Z,7.82
2023-02-06T14:26:14.832Z,10.75
2023-02-06T14:31:33.010Z,12.05
2023-02-06T14:36:59.421Z,9.45
2023-02-06T14:42:12.138Z,15.70
2023-02-06T14:47:19.496Z,15.57
2023-02-06T14:52:25.406Z,8.90
2023-02-06T14:57:31.903Z,8.05
2023-02-06T15:02:36.882Z,14.33
2023-02-06T15:07:39.471Z,14.07
2023-02-06T15:12:51.942Z,14.52
2023-02-06T15:18:00.723Z,14.88
2023-02-06T15:23:17.821Z,15.30
2023-02-06T15:28:27.518Z,18.23
2023-02-06T15:33:32.977Z,14.68
2023-02-06T15:38:35.652Z,19.63
2023-02-06T15:43:46.268Z,17.67
2023-02-06T15:48:54.199Z,13.50
2023-02-06T15:54:07.724Z,17.73
2023-02-06T15:59:18.123Z,9.77
2023-02-06T16:04:23.974Z,14.65
2023-02-06T16:09:27.368Z,13.32
2023-02-06T16:14:50.123Z,14.35
2023-02-06T16:19:56.829Z,25.05
2023-02-06T16:25:21.988Z,17.20
2023-02-06T16:30:28.208Z,14.25
2023-02-06T16:35:30.527Z,20.05
2023-02-06T16:40:32.693Z,15.90
2023-02-06T16:45:36.192Z,19.95
2023-02-06T16:50:39.766Z,22.10
2023-02-06T16:55:42.991Z,21.42
2023-02-06T17:00:47.155Z,19.88
2023-02-06T17:05:50.092Z,20.02
2023-02-06T17:10:55.134Z,22.15
2023-02-06T17:15:58.857Z,15.68
2023-02-06T17:21:00.951Z,14.27
2023-02-06T17:26:03.047Z,17.38
2023-02-06T17:31:07.069Z,15.27
2023-02-06T17:36:15.108Z,12.20
2023-02-06T17:41:17.209Z,20.52
2023-02-06T17:46:20.772Z,19.70
2023-02-06T17:51:22.925Z,18.33
2023-02-06T17:56:25.974Z,16.75
2023-02-06T18:01:30.675Z,10.85
2023-02-06T18:06:33.875Z,16.77
2023-02-06T18:11:35.993Z,14.50
2023-02-06T18:16:39.485Z,14.65
2023-02-06T18:21:41.621Z,14.25
2023-02-06T18:26:43.875Z,17.42
2023-02-06T18:31:47.582Z,17.42
2023-02-06T18:36:49.754Z,15.38
2023-02-06T18:41:51.985Z,19.75
2023-02-06T18:46:55.525Z,46.47
2023-02-06T18:51:57.638Z,17.80
2023-02-06T18:57:07.203Z,15.63
2023-02-06T19:02:11.800Z,23.23
2023-02-06T19:07:14.582Z,33.22
2023-02-06T19:12:16.727Z,31.25
2023-02-06T19:17:20.256Z,39.00
2023-02-06T19:22:22.558Z,39.30
2023-02-06T19:27:25.907Z,25.98
2023-02-06T19:32:29.479Z,28.45
2023-02-06T19:37:32.136Z,23.00
2023-02-06T19:42:34.237Z,32.15
2023-02-06T19:47:37.733Z,42.38
2023-02-06T19:52:39.984Z,43.65
2023-02-06T19:57:42.194Z,57.25
2023-02-06T20:02:45.920Z,67.03
2023-02-06T20:07:48.308Z,56.83
2023-02-06T20:12:50.550Z,34.47
2023-02-06T20:17:54.021Z,26.88
2023-02-06T20:22:56.487Z,75.18
2023-02-06T20:27:58.648Z,67.38
2023-02-06T20:33:02.566Z,55.92
2023-02-06T20:38:04.865Z,26.83
2023-02-06T20:43:09.997Z,31.65
2023-02-06T20:48:13.898Z,49.03
2023-02-06T20:53:16.034Z,17.05
2023-02-06T20:58:18.433Z,25.60
2023-02-06T21:03:22.489Z,20.42
2023-02-06T21:08:25.535Z,23.95
2023-02-06T21:13:27.792Z,41.55
2023-02-06T21:18:32.336Z,18.17
2023-02-06T21:23:34.552Z,19.95
2023-02-06T21:28:37.277Z,24.25
2023-02-06T21:33:41.067Z,27.38
2023-02-06T21:38:44.135Z,32.53
2023-02-06T21:43:46.394Z,22.60
2023-02-06T21:48:53.672Z,20.13
2023-02-06T21:53:55.932Z,13.65
2023-02-06T21:58:58.366Z,12.02
2023-02-06T22:04:03.812Z,15.90
2023-02-06T22:09:08.356Z,15.88
2023-02-06T22:14:13.399Z,14.20
2023-02-06T22:19:17.179Z,21.70
2023-02-06T22:24:19.363Z,21.45
2023-02-06T22:29:21.573Z,21.13
2023-02-06T22:34:25.092Z,21.33
2023-02-06T22:39:27.250Z,20.88
2023-02-06T22:44:29.437Z,22.05
2023-02-06T22:49:33.015Z,24.23
2023-02-06T22:54:35.206Z,28.42
2023-02-06T22:59:37.377Z,25.38
2023-02-06T23:04:40.961Z,22.88
2023-02-06T23:09:43.088Z,22.08
2023-02-06T23:14:45.176Z,20.85
2023-02-06T23:19:48.820Z,20.13
2023-02-06T23:24:50.994Z,20.88
2023-02-06T23:29:53.126Z,18.02
2023-02-06T23:34:56.613Z,20.27
2023-02-06T23:39:58.742Z,20.55
2023-02-06T23:45:01.002Z,16.52
2023-02-06T23:50:05.267Z,18.00
2023-02-06T23:55:07.912Z,16.98
